createdAt,value
2019-03-05T05:11:37.220Z,0.00
2019-03-05T05:12:37.214Z,0.00
2019-03-05T05:13:37.201Z,0.00
2019-03-05T05:14:37.188Z,0.00
2019-03-05T05:15:37.178Z,0.00
2019-03-05T05:16:37.167Z,0.00
2019-03-05T05:17:37.154Z,0.00
2019-03-05T05:18:37.142Z,0.00
2019-03-05T05:19:37.137Z,0.00
2019-03-05T05:21:37.116Z,0.00
2019-03-05T05:22:37.110Z,0.00
2019-03-05T05:23:37.090Z,0.00
2019-03-05T05:24:37.078Z,0.00
2019-03-05T05:25:37.064Z,0.00
2019-03-05T05:26:37.053Z,0.00
2019-03-05T05:27:37.041Z,0.00
2019-03-05T05:28:37.035Z,0.00
2019-03-05T05:29:37.024Z,0.00
2019-03-05T05:30:37.014Z,0.00
2019-03-05T05:31:37.001Z,0.00
2019-03-05T05:32:36.987Z,0.00
2019-03-05T05:33:36.973Z,0.00
2019-03-05T05:34:36.963Z,0.00
2019-03-05T05:35:36.963Z,0.00
2019-03-05T05:36:36.940Z,0.00
2019-03-05T05:37:36.929Z,0.00
2019-03-05T05:38:36.939Z,0.00
2019-03-05T05:39:36.912Z,0.00
2019-03-05T05:40:36.893Z,0.00
2019-03-05T05:41:36.882Z,0.00
2019-03-05T05:42:36.871Z,0.00
2019-03-05T05:43:36.860Z,0.00
2019-03-05T05:44:36.849Z,0.00
2019-03-05T05:45:36.840Z,0.00
2019-03-05T05:46:36.826Z,0.00
2019-03-05T05:47:36.816Z,0.00
2019-03-05T05:48:36.812Z,0.00
2019-03-05T05:49:36.796Z,0.00
2019-03-05T05:50:36.787Z,0.00
2019-03-05T05:51:36.772Z,0.00
2019-03-05T05:52:36.759Z,0.00
2019-03-05T05:53:36.748Z,0.00
2019-03-05T05:54:36.735Z,5.62
2019-03-05T05:55:36.731Z,5.62
2019-03-05T05:56:36.714Z,5.62
2019-03-05T05:57:36.710Z,5.62
2019-03-05T05:58:36.707Z,5.62
2019-03-05T05:59:36.679Z,5.62
2019-03-05T06:00:36.676Z,5.62
2019-03-05T06:01:36.669Z,5.62
2019-03-05T06:02:36.646Z,5.62
2019-03-05T06:03:37.893Z,5.62
2019-03-05T06:04:36.623Z,11.25
2019-03-05T06:05:36.611Z,11.25
2019-03-05T06:06:36.600Z,11.25
2019-03-05T06:07:36.594Z,11.25
2019-03-05T06:08:36.583Z,11.25
2019-03-05T06:09:36.567Z,11.25
2019-03-05T06:10:36.555Z,11.25
2019-03-05T06:11:36.547Z,16.87
2019-03-05T06:12:36.538Z,16.87
2019-03-05T06:13:36.527Z,16.87
2019-03-05T06:14:36.510Z,22.50
2019-03-05T06:15:36.498Z,22.50
2019-03-05T06:16:36.487Z,22.50
2019-03-05T06:17:36.476Z,16.87
2019-03-05T06:18:36.475Z,22.50
2019-03-05T06:19:36.457Z,22.50
2019-03-05T06:20:36.443Z,28.12
2019-03-05T06:21:36.432Z,28.12
2019-03-05T06:22:36.423Z,33.75
2019-03-05T06:23:36.412Z,33.75
2019-03-05T06:24:36.399Z,39.37
2019-03-05T06:25:36.385Z,39.37
2019-03-05T06:26:36.373Z,45.00
2019-03-05T06:27:36.367Z,45.00
2019-03-05T06:28:36.356Z,45.00
2019-03-05T06:29:36.346Z,50.62
2019-03-05T06:30:36.328Z,50.62
2019-03-05T06:31:36.324Z,50.62
2019-03-05T06:32:36.308Z,50.62
2019-03-05T06:33:36.299Z,50.62
2019-03-05T06:34:36.284Z,56.25
2019-03-05T06:35:36.274Z,56.25
2019-03-05T06:36:36.262Z,56.25
2019-03-05T06:37:36.254Z,56.25
2019-03-05T06:38:36.238Z,56.25
2019-03-05T06:39:36.228Z,56.25
2019-03-05T06:40:36.216Z,56.25
2019-03-05T06:41:36.205Z,50.62
2019-03-05T06:42:36.192Z,50.62
2019-03-05T06:43:36.184Z,56.25
2019-03-05T06:44:36.172Z,56.25
2019-03-05T06:45:36.163Z,56.25
2019-03-05T06:46:36.151Z,56.25
2019-03-05T06:47:36.139Z,56.25
2019-03-05T06:48:36.124Z,56.25
2019-03-05T06:49:36.121Z,61.87
2019-03-05T06:50:36.106Z,56.25
2019-03-05T06:51:36.091Z,50.62
2019-03-05T06:52:36.079Z,56.25
2019-03-05T06:53:36.068Z,67.50
2019-03-05T06:54:36.058Z,73.12
2019-03-05T06:55:36.045Z,73.12
2019-03-05T06:56:36.035Z,78.75
2019-03-05T06:57:36.024Z,84.37
2019-03-05T06:58:36.017Z,84.37
2019-03-05T06:59:36.002Z,84.37
2019-03-05T07:00:35.997Z,84.37
2019-03-05T07:01:35.984Z,73.12
2019-03-05T07:02:35.967Z,73.12
2019-03-05T07:03:35.961Z,84.37
2019-03-05T07:04:35.943Z,90.00
2019-03-05T07:05:35.937Z,106.87
2019-03-05T07:06:35.926Z,112.50
2019-03-05T07:07:35.912Z,118.12
2019-03-05T07:08:35.900Z,112.50
2019-03-05T07:09:35.892Z,123.75
2019-03-05T07:10:35.875Z,112.50
2019-03-05T07:11:35.867Z,118.12
2019-03-05T07:12:35.860Z,123.75
2019-03-05T07:13:35.841Z,135.00
2019-03-05T07:14:35.831Z,140.62
2019-03-05T07:15:35.822Z,151.87
2019-03-05T07:16:35.815Z,157.50
2019-03-05T07:17:35.800Z,180.00
2019-03-05T07:18:35.787Z,185.62
2019-03-05T07:19:35.777Z,191.25
2019-03-05T07:20:35.765Z,208.12
2019-03-05T07:21:35.760Z,225.00
2019-03-05T07:22:35.762Z,225.00
2019-03-05T07:23:35.738Z,247.50
2019-03-05T07:24:35.717Z,264.37
2019-03-05T07:25:35.707Z,275.62
2019-03-05T07:26:35.696Z,275.62
2019-03-05T07:27:35.685Z,286.87
2019-03-05T07:28:35.681Z,309.37
2019-03-05T07:29:35.663Z,326.25
2019-03-05T07:30:35.653Z,343.12
2019-03-05T07:31:35.642Z,360.00
2019-03-05T07:32:35.637Z,365.62
2019-03-05T07:33:35.620Z,360.00
2019-03-05T07:34:35.608Z,360.00
2019-03-05T07:35:35.599Z,241.87
2019-03-05T07:36:35.584Z,281.25
2019-03-05T07:37:35.579Z,320.62
2019-03-05T07:38:35.567Z,253.12
2019-03-05T07:39:35.554Z,281.25
2019-03-05T07:40:35.540Z,388.12
2019-03-05T07:41:35.528Z,326.25
2019-03-05T07:42:35.524Z,455.62
2019-03-05T07:43:36.713Z,427.50
2019-03-05T07:44:35.498Z,416.25
2019-03-05T07:45:35.481Z,270.00
2019-03-05T07:46:35.475Z,343.12
2019-03-05T07:47:35.465Z,292.50
2019-03-05T07:48:35.447Z,545.62
2019-03-05T07:49:43.631Z,292.50
2019-03-05T07:50:36.448Z,275.62
2019-03-05T07:51:35.415Z,421.87
2019-03-05T07:52:35.405Z,309.37
2019-03-05T07:53:35.390Z,236.25
2019-03-05T07:54:35.379Z,225.00
2019-03-05T07:55:35.373Z,258.75
2019-03-05T07:56:35.360Z,686.25
2019-03-05T07:57:35.353Z,703.12
2019-03-05T07:58:35.342Z,691.87
2019-03-05T07:59:35.332Z,360.00
2019-03-05T08:00:35.323Z,292.50
2019-03-05T08:01:35.305Z,663.75
2019-03-05T08:02:35.320Z,455.62
2019-03-05T08:03:35.283Z,421.87
2019-03-05T08:04:35.275Z,618.75
2019-03-05T08:05:35.262Z,517.50
2019-03-05T08:06:35.251Z,556.87
2019-03-05T08:07:35.239Z,399.37
2019-03-05T08:08:35.238Z,281.25
2019-03-05T08:09:35.215Z,253.12
2019-03-05T08:10:35.202Z,202.50
2019-03-05T08:11:35.193Z,174.37
2019-03-05T08:12:35.181Z,157.50
2019-03-05T08:13:35.170Z,157.50
2019-03-05T08:14:35.158Z,157.50
2019-03-05T08:15:35.148Z,140.62
2019-03-05T08:16:35.137Z,123.75
2019-03-05T08:17:35.126Z,129.37
2019-03-05T08:18:35.114Z,151.87
2019-03-05T08:19:35.105Z,174.37
2019-03-05T08:20:35.094Z,163.12
2019-03-05T08:21:35.081Z,129.37
2019-03-05T08:22:35.072Z,140.62
2019-03-05T08:23:35.059Z,163.12
2019-03-05T08:24:35.046Z,191.25
2019-03-05T08:25:35.039Z,191.25
2019-03-05T08:26:35.029Z,309.37
2019-03-05T08:27:35.017Z,371.25
2019-03-05T08:28:35.008Z,270.00
2019-03-05T08:29:34.992Z,258.75
2019-03-05T08:30:35.043Z,230.62
2019-03-05T08:31:34.968Z,253.12
2019-03-05T08:32:34.959Z,163.12
2019-03-05T08:33:34.950Z,146.25
2019-03-05T08:34:34.939Z,286.87
2019-03-05T08:35:34.925Z,292.50
2019-03-05T08:36:34.913Z,320.62
2019-03-05T08:37:34.906Z,337.50
2019-03-05T08:38:34.893Z,298.12
2019-03-05T08:39:34.880Z,838.12
2019-03-05T08:40:34.869Z,410.62
2019-03-05T08:41:34.863Z,348.75
2019-03-05T08:42:34.850Z,343.12
2019-03-05T08:43:34.840Z,540.00
2019-03-05T08:44:34.832Z,410.62
2019-03-05T08:45:34.823Z,810.00
2019-03-05T08:46:34.803Z,393.75
2019-03-05T08:47:34.791Z,388.12
2019-03-05T08:48:34.780Z,376.87
2019-03-05T08:49:34.770Z,309.37
2019-03-05T08:50:34.766Z,365.62
2019-03-05T08:51:34.755Z,461.25
2019-03-05T08:52:34.738Z,478.12
2019-03-05T08:53:34.728Z,675.00
2019-03-05T08:54:34.722Z,421.87
2019-03-05T08:55:34.704Z,472.50
2019-03-05T08:56:34.698Z,438.75
2019-03-05T08:57:34.682Z,421.87
2019-03-05T08:58:34.670Z,663.75
2019-03-05T08:59:34.745Z,1271.25
2019-03-05T09:00:34.649Z,691.87
2019-03-05T09:01:34.636Z,1136.25
2019-03-05T09:02:34.627Z,568.12
2019-03-05T09:03:34.621Z,900.00
2019-03-05T09:04:34.604Z,1310.62
2019-03-05T09:05:34.591Z,1276.87
2019-03-05T09:06:34.584Z,1293.75
2019-03-05T09:07:34.573Z,461.25
2019-03-05T09:08:34.558Z,1338.75
2019-03-05T09:09:34.545Z,663.75
2019-03-05T09:10:34.536Z,579.37
2019-03-05T09:11:34.524Z,376.87
2019-03-05T09:12:34.511Z,326.25
2019-03-05T09:13:34.523Z,298.12
2019-03-05T09:14:34.754Z,292.50
2019-03-05T09:15:34.510Z,270.00
2019-03-05T09:16:34.512Z,208.12
2019-03-05T09:17:34.459Z,337.50
2019-03-05T09:18:34.457Z,405.00
2019-03-05T09:19:34.458Z,388.12
2019-03-05T09:20:34.462Z,770.62
2019-03-05T09:21:34.466Z,495.00
2019-03-05T09:22:34.401Z,309.37
2019-03-05T09:23:34.387Z,298.12
2019-03-05T09:24:34.381Z,343.12
2019-03-05T09:25:34.367Z,472.50
2019-03-05T09:26:34.360Z,466.87
2019-03-05T09:27:34.343Z,838.12
2019-03-05T09:28:34.330Z,326.25
2019-03-05T09:29:34.319Z,376.87
2019-03-05T09:30:34.312Z,354.37
2019-03-05T09:31:34.305Z,264.37
2019-03-05T09:32:34.285Z,196.87
2019-03-05T09:33:34.276Z,225.00
2019-03-05T09:34:34.262Z,258.75
2019-03-05T09:35:34.253Z,264.37
2019-03-05T09:36:34.244Z,213.75
2019-03-05T09:37:34.229Z,303.75
2019-03-05T09:38:34.221Z,399.37
2019-03-05T09:39:34.206Z,354.37
2019-03-05T09:40:34.197Z,275.62
2019-03-05T09:41:34.185Z,230.62
2019-03-05T09:42:39.873Z,270.00
2019-03-05T09:43:58.641Z,270.00
2019-03-05T09:44:58.631Z,168.75
2019-03-05T09:45:58.620Z,174.37
2019-03-05T09:46:58.608Z,264.37
2019-03-05T09:47:58.603Z,174.37
2019-03-05T09:48:58.586Z,196.87
2019-03-05T09:49:58.575Z,185.62
2019-03-05T09:50:58.564Z,168.75
2019-03-05T09:51:58.557Z,151.87
2019-03-05T09:52:58.547Z,123.75
2019-03-05T09:53:58.533Z,101.25
2019-03-05T09:54:58.522Z,73.12
2019-03-05T09:55:58.510Z,78.75
2019-03-05T09:56:58.499Z,135.00
2019-03-05T09:58:07.402Z,225.00
2019-03-05T09:58:59.493Z,320.62
2019-03-05T09:59:58.463Z,354.37
2019-03-05T10:00:58.460Z,523.12
2019-03-05T10:01:58.443Z,1631.25
2019-03-05T10:02:58.437Z,1625.62
2019-03-05T10:03:58.421Z,900.00
2019-03-05T10:04:58.410Z,1440.00
2019-03-05T10:05:58.398Z,1816.87
2019-03-05T10:06:58.391Z,1749.37
2019-03-05T10:07:58.381Z,281.25
2019-03-05T10:08:58.365Z,315.00
2019-03-05T10:09:58.355Z,1580.62
2019-03-05T10:10:58.346Z,1541.25
2019-03-05T10:11:58.331Z,1591.87
2019-03-05T10:12:59.152Z,1659.37
2019-03-05T10:13:58.314Z,1676.25
2019-03-05T10:14:58.314Z,1766.25
2019-03-05T10:15:58.286Z,826.87
2019-03-05T10:16:58.284Z,393.75
2019-03-05T10:17:58.274Z,556.87
2019-03-05T10:18:58.258Z,1738.12
2019-03-05T10:19:58.242Z,1130.62
2019-03-05T10:20:58.239Z,528.75
2019-03-05T10:21:58.230Z,1800.00
2019-03-05T10:22:58.265Z,1620.00
2019-03-05T10:23:58.197Z,585.00
2019-03-05T10:25:05.686Z,1451.25
2019-03-05T10:26:22.657Z,1918.12
2019-03-05T10:27:22.647Z,781.87
2019-03-05T10:28:22.637Z,1479.37
2019-03-05T10:29:22.626Z,1794.37
2019-03-05T10:30:25.004Z,495.00
2019-03-05T10:31:22.600Z,534.37
2019-03-05T10:32:22.599Z,455.62
2019-03-05T10:33:22.585Z,618.75
2019-03-05T10:34:22.566Z,1091.25
2019-03-05T10:35:22.555Z,1811.25
2019-03-05T10:36:22.546Z,1451.25
2019-03-05T10:37:22.531Z,523.12
2019-03-05T10:38:22.526Z,1777.50
2019-03-05T10:39:30.573Z,1777.50
2019-03-05T10:40:46.987Z,528.75
2019-03-05T10:41:46.973Z,1659.37
2019-03-05T10:42:48.161Z,382.50
2019-03-05T10:43:46.943Z,1805.62
2019-03-05T10:44:46.929Z,793.12
2019-03-05T10:45:46.928Z,2041.87
2019-03-05T10:46:46.906Z,590.62
2019-03-05T10:47:46.896Z,393.75
2019-03-05T10:48:46.895Z,1648.12
2019-03-05T10:49:46.873Z,1861.87
2019-03-05T10:50:46.866Z,568.12
2019-03-05T10:51:46.852Z,438.75
2019-03-05T10:52:46.843Z,472.50
2019-03-05T10:53:46.833Z,421.87
2019-03-05T10:54:46.818Z,1957.50
2019-03-05T10:55:46.818Z,1929.37
2019-03-05T10:56:46.800Z,675.00
2019-03-05T10:57:46.786Z,585.00
2019-03-05T10:58:46.775Z,1096.87
2019-03-05T10:59:46.766Z,1693.12
2019-03-05T11:00:46.755Z,523.12
2019-03-05T11:01:46.742Z,382.50
2019-03-05T11:02:46.738Z,298.12
2019-03-05T11:03:46.722Z,275.62
2019-03-05T11:04:46.711Z,219.37
2019-03-05T11:05:46.697Z,247.50
2019-03-05T11:06:46.688Z,326.25
2019-03-05T11:07:46.678Z,365.62
2019-03-05T11:08:46.670Z,466.87
2019-03-05T11:09:46.656Z,624.37
2019-03-05T11:10:46.651Z,230.62
2019-03-05T11:11:46.635Z,241.87
2019-03-05T11:12:46.619Z,241.87
2019-03-05T11:13:46.606Z,230.62
2019-03-05T11:14:46.601Z,213.75
2019-03-05T11:15:46.585Z,196.87
2019-03-05T11:16:46.576Z,202.50
2019-03-05T11:17:46.570Z,180.00
2019-03-05T11:18:46.552Z,168.75
2019-03-05T11:19:46.543Z,157.50
2019-03-05T11:20:46.532Z,157.50
2019-03-05T11:21:46.523Z,157.50
2019-03-05T11:22:46.510Z,180.00
2019-03-05T11:23:46.497Z,191.25
2019-03-05T11:24:46.489Z,540.00
2019-03-05T11:25:46.479Z,461.25
2019-03-05T11:26:46.465Z,1811.25
2019-03-05T11:27:46.454Z,1845.00
2019-03-05T11:28:46.444Z,776.25
2019-03-05T11:29:46.435Z,1918.12
2019-03-05T11:30:46.417Z,658.12
2019-03-05T11:31:46.410Z,371.25
2019-03-05T11:32:46.399Z,337.50
2019-03-05T11:33:46.388Z,286.87
2019-03-05T11:34:46.378Z,236.25
2019-03-05T11:35:46.368Z,191.25
2019-03-05T11:36:46.351Z,168.75
2019-03-05T11:37:46.346Z,174.37
2019-03-05T11:38:46.329Z,196.87
2019-03-05T11:39:46.321Z,213.75
2019-03-05T11:40:46.310Z,213.75
2019-03-05T11:41:46.297Z,191.25
2019-03-05T11:42:46.695Z,185.62
2019-03-05T11:43:46.276Z,174.37
2019-03-05T11:44:58.846Z,163.12
2019-03-05T11:46:10.733Z,146.25
2019-03-05T11:47:10.727Z,151.87
2019-03-05T11:48:10.715Z,174.37
2019-03-05T11:49:10.699Z,174.37
2019-03-05T11:50:10.685Z,180.00
2019-03-05T11:51:10.678Z,180.00
2019-03-05T11:52:10.667Z,191.25
2019-03-05T11:53:10.651Z,185.62
2019-03-05T11:54:10.640Z,185.62
2019-03-05T11:55:10.627Z,202.50
2019-03-05T11:56:10.616Z,213.75
2019-03-05T11:57:10.606Z,185.62
2019-03-05T11:58:10.602Z,157.50
2019-03-05T11:59:10.583Z,118.12
2019-03-05T12:00:10.582Z,118.12
2019-03-05T12:01:10.558Z,106.87
2019-03-05T12:02:18.503Z,84.37
2019-03-05T12:03:35.024Z,56.25
2019-03-05T12:04:35.031Z,50.62
2019-03-05T12:05:35.021Z,67.50
2019-03-05T12:06:35.022Z,95.62
2019-03-05T12:07:35.026Z,135.00
2019-03-05T12:08:34.966Z,174.37
2019-03-05T12:09:34.950Z,247.50
2019-03-05T12:10:34.940Z,326.25
2019-03-05T12:11:34.928Z,376.87
2019-03-05T12:12:34.926Z,1395.00
2019-03-05T12:13:34.909Z,1417.50
2019-03-05T12:14:34.898Z,1355.62
2019-03-05T12:15:34.882Z,1293.75
2019-03-05T12:16:34.873Z,1350.00
2019-03-05T12:17:34.865Z,1428.75
2019-03-05T12:18:34.851Z,1276.87
2019-03-05T12:19:34.838Z,1271.25
2019-03-05T12:20:34.830Z,1248.75
2019-03-05T12:21:34.824Z,1220.62
2019-03-05T12:22:34.807Z,1147.50
2019-03-05T12:23:34.794Z,928.12
2019-03-05T12:24:34.787Z,1164.37
2019-03-05T12:25:36.090Z,1186.87
2019-03-05T12:26:34.769Z,939.37
2019-03-05T12:27:35.965Z,1175.62
2019-03-05T12:28:34.742Z,433.12
2019-03-05T12:29:34.728Z,500.62
2019-03-05T12:30:34.724Z,1288.12
2019-03-05T12:31:34.705Z,1265.62
2019-03-05T12:32:34.699Z,1237.50
2019-03-05T12:33:34.703Z,1333.12
2019-03-05T12:34:34.670Z,495.00
2019-03-05T12:35:35.614Z,360.00
2019-03-05T12:36:34.650Z,444.37
2019-03-05T12:37:34.637Z,337.50
2019-03-05T12:38:34.630Z,337.50
2019-03-05T12:39:34.614Z,1293.75
2019-03-05T12:40:34.610Z,466.87
2019-03-05T12:41:34.591Z,466.87
2019-03-05T12:42:34.580Z,1288.12
2019-03-05T12:43:34.579Z,1260.00
2019-03-05T12:44:34.558Z,1186.87
2019-03-05T12:45:34.546Z,1231.87
2019-03-05T12:46:34.540Z,1006.87
2019-03-05T12:47:34.528Z,1260.00
2019-03-05T12:48:39.916Z,337.50
2019-03-05T12:49:58.978Z,1051.87
2019-03-05T12:50:58.966Z,1141.87
2019-03-05T12:51:58.960Z,1068.75
2019-03-05T12:52:58.952Z,950.62
2019-03-05T12:53:58.933Z,916.87
2019-03-05T12:54:58.928Z,1035.00
2019-03-05T12:55:58.919Z,990.00
2019-03-05T12:56:58.901Z,388.12
2019-03-05T12:57:58.891Z,1102.50
2019-03-05T12:58:58.878Z,320.62
2019-03-05T12:59:58.867Z,298.12
2019-03-05T13:00:58.861Z,264.37
2019-03-05T13:01:58.862Z,208.12
2019-03-05T13:02:58.845Z,157.50
2019-03-05T13:03:58.829Z,118.12
2019-03-05T13:04:58.812Z,78.75
2019-03-05T13:05:58.800Z,61.87
2019-03-05T13:06:58.791Z,50.62
2019-03-05T13:07:58.781Z,50.62
2019-03-05T13:08:58.766Z,50.62
2019-03-05T13:09:58.764Z,56.25
2019-03-05T13:10:58.749Z,78.75
2019-03-05T13:11:58.742Z,371.25
2019-03-05T13:12:58.724Z,680.62
2019-03-05T13:14:06.044Z,517.50
2019-03-05T13:14:59.719Z,523.12
2019-03-05T13:15:58.689Z,298.12
2019-03-05T13:16:58.679Z,568.12
2019-03-05T13:17:58.668Z,596.25
2019-03-05T13:18:58.656Z,545.62
2019-03-05T13:19:58.645Z,568.12
2019-03-05T13:20:58.642Z,292.50
2019-03-05T13:21:58.622Z,540.00
2019-03-05T13:22:58.618Z,573.75
2019-03-05T13:23:58.600Z,540.00
2019-03-05T13:24:58.588Z,461.25
2019-03-05T13:25:58.579Z,416.25
2019-03-05T13:26:58.570Z,393.75
2019-03-05T13:28:02.285Z,382.50
2019-03-05T13:28:58.546Z,371.25
2019-03-05T13:29:58.538Z,354.37
2019-03-05T13:31:00.468Z,326.25
2019-03-05T13:32:22.987Z,320.62
2019-03-05T13:33:22.975Z,303.75
2019-03-05T13:34:22.966Z,286.87
2019-03-05T13:35:25.450Z,275.62
2019-03-05T13:36:50.619Z,258.75
2019-03-05T13:37:47.407Z,230.62
2019-03-05T13:38:47.396Z,208.12
2019-03-05T13:39:47.389Z,208.12
2019-03-05T13:40:47.380Z,264.37
2019-03-05T13:41:50.459Z,270.00
